sensor_id;sensor_type;location;lat;lon;timestamp;temperature;humidity
37289;DHT22;23174;49.462;11.000;2023-04-25T00:00:50;12.40;99.90
37289;DHT22;23174;49.462;11.000;2023-04-25T00:02:52;12.50;99.90
37289;DHT22;23174;49.462;11.000;2023-04-25T00:04:53;12.50;99.90
37289;DHT22;23174;49.462;11.000;2023-04-25T00:06:54;12.50;99.90
37289;DHT22;23174;49.462;11.000;2023-04-25T00:08:56;12.50;99.90
37289;DHT22;23174;49.462;11.000;2023-04-25T00:10:57;12.50;99.90
37289;DHT22;23174;49.462;11.000;2023-04-25T00:12:57;12.50;99.90
37289;DHT22;23174;49.462;11.000;2023-04-25T00:14:58;12.50;99.90
37289;DHT22;23174;49.462;11.000;2023-04-25T00:17:00;12.50;99.90
37289;DHT22;23174;49.462;11.000;2023-04-25T00:19:01;12.50;99.90
37289;DHT22;23174;49.462;11.000;2023-04-25T00:21:03;12.50;99.90
37289;DHT22;23174;49.462;11.000;2023-04-25T00:23:06;12.50;99.90
37289;DHT22;23174;49.462;11.000;2023-04-25T00:25:07;12.50;99.90
37289;DHT22;23174;49.462;11.000;2023-04-25T00:27:07;12.50;99.90
37289;DHT22;23174;49.462;11.000;2023-04-25T00:29:08;12.50;99.90
37289;DHT22;23174;49.462;11.000;2023-04-25T00:31:08;12.40;99.90
37289;DHT22;23174;49.462;11.000;2023-04-25T00:33:09;12.50;99.90
37289;DHT22;23174;49.462;11.000;2023-04-25T00:35:10;12.40;99.90
37289;DHT22;23174;49.462;11.000;2023-04-25T00:37:11;12.50;99.90
37289;DHT22;23174;49.462;11.000;2023-04-25T00:39:12;12.50;99.90
37289;DHT22;23174;49.462;11.000;2023-04-25T00:41:13;12.50;99.90
37289;DHT22;23174;49.462;11.000;2023-04-25T00:43:14;12.50;99.90
37289;DHT22;23174;49.462;11.000;2023-04-25T00:45:14;12.50;99.90
37289;DHT22;23174;49.462;11.000;2023-04-25T00:47:15;12.40;99.90
37289;DHT22;23174;49.462;11.000;2023-04-25T00:49:16;12.50;99.90
37289;DHT22;23174;49.462;11.000;2023-04-25T00:51:20;12.40;99.90
37289;DHT22;23174;49.462;11.000;2023-04-25T00:53:22;12.40;99.90
37289;DHT22;23174;49.462;11.000;2023-04-25T00:55:22;12.40;99.90
37289;DHT22;23174;49.462;11.000;2023-04-25T00:57:23;12.40;99.90
37289;DHT22;23174;49.462;11.000;2023-04-25T00:59:23;12.40;99.90
37289;DHT22;23174;49.462;11.000;2023-04-25T01:01:24;12.40;99.90
37289;DHT22;23174;49.462;11.000;2023-04-25T01:03:25;12.40;99.90
37289;DHT22;23174;49.462;11.000;2023-04-25T01:05:26;12.40;99.90
37289;DHT22;23174;49.462;11.000;2023-04-25T01:07:27;12.40;99.90
37289;DHT22;23174;49.462;11.000;2023-04-25T01:09:27;12.40;99.90
37289;DHT22;23174;49.462;11.000;2023-04-25T01:11:30;12.40;99.90
37289;DHT22;23174;49.462;11.000;2023-04-25T01:13:31;12.40;99.90
37289;DHT22;23174;49.462;11.000;2023-04-25T01:15:32;12.40;99.90
37289;DHT22;23174;49.462;11.000;2023-04-25T01:17:34;12.30;99.90
37289;DHT22;23174;49.462;11.000;2023-04-25T01:19:35;12.30;99.90
37289;DHT22;23174;49.462;11.000;2023-04-25T01:21:35;12.40;99.90
37289;DHT22;23174;49.462;11.000;2023-04-25T01:23:37;12.40;99.90
37289;DHT22;23174;49.462;11.000;2023-04-25T01:25:38;12.40;99.90
37289;DHT22;23174;49.462;11.000;2023-04-25T01:27:40;12.30;99.90
37289;DHT22;23174;49.462;11.000;2023-04-25T01:29:41;12.30;99.90
37289;DHT22;23174;49.462;11.000;2023-04-25T01:31:42;12.20;99.90
37289;DHT22;23174;49.462;11.000;2023-04-25T01:33:44;12.30;99.90
37289;DHT22;23174;49.462;11.000;2023-04-25T01:35:45;12.30;99.90
37289;DHT22;23174;49.462;11.000;2023-04-25T01:37:45;12.30;99.90
37289;DHT22;23174;49.462;11.000;2023-04-25T01:39:46;12.30;99.90
37289;DHT22;23174;49.462;11.000;2023-04-25T01:41:47;12.30;99.90
37289;DHT22;23174;49.462;11.000;2023-04-25T01:43:47;12.20;99.90
37289;DHT22;23174;49.462;11.000;2023-04-25T01:45:49;12.30;99.90
37289;DHT22;23174;49.462;11.000;2023-04-25T01:47:50;12.20;99.90
37289;DHT22;23174;49.462;11.000;2023-04-25T01:49:51;12.20;99.90
37289;DHT22;23174;49.462;11.000;2023-04-25T01:51:51;12.30;99.90
37289;DHT22;23174;49.462;11.000;2023-04-25T01:53:52;12.20;99.90
37289;DHT22;23174;49.462;11.000;2023-04-25T01:55:52;12.20;99.90
37289;DHT22;23174;49.462;11.000;2023-04-25T01:57:53;12.20;99.90
37289;DHT22;23174;49.462;11.000;2023-04-25T02:00:05;12.20;99.90
37289;DHT22;23174;49.462;11.000;2023-04-25T02:02:07;12.20;99.90
37289;DHT22;23174;49.462;11.000;2023-04-25T02:04:07;12.20;99.90
37289;DHT22;23174;49.462;11.000;2023-04-25T02:06:08;12.10;99.90
37289;DHT22;23174;49.462;11.000;2023-04-25T02:08:09;12.20;99.90
37289;DHT22;23174;49.462;11.000;2023-04-25T02:10:09;12.10;99.90
37289;DHT22;23174;49.462;11.000;2023-04-25T02:12:10;12.10;99.90
37289;DHT22;23174;49.462;11.000;2023-04-25T02:14:11;12.20;99.90
37289;DHT22;23174;49.462;11.000;2023-04-25T02:16:11;12.20;99.90
37289;DHT22;23174;49.462;11.000;2023-04-25T02:18:13;12.10;99.90
37289;DHT22;23174;49.462;11.000;2023-04-25T02:20:16;12.10;99.90
37289;DHT22;23174;49.462;11.000;2023-04-25T02:22:16;12.10;99.90
37289;DHT22;23174;49.462;11.000;2023-04-25T02:24:17;12.10;99.90
37289;DHT22;23174;49.462;11.000;2023-04-25T02:26:17;12.20;99.90
37289;DHT22;23174;49.462;11.000;2023-04-25T02:28:18;12.20;99.90
37289;DHT22;23174;49.462;11.000;2023-04-25T02:30:18;12.10;99.90
37289;DHT22;23174;49.462;11.000;2023-04-25T02:32:19;12.10;99.90
37289;DHT22;23174;49.462;11.000;2023-04-25T02:34:20;12.20;99.90
37289;DHT22;23174;49.462;11.000;2023-04-25T02:36:21;12.20;99.90
37289;DHT22;23174;49.462;11.000;2023-04-25T02:38:21;12.20;99.90
37289;DHT22;23174;49.462;11.000;2023-04-25T02:40:22;12.10;99.90
37289;DHT22;23174;49.462;11.000;2023-04-25T02:42:22;12.10;99.90
37289;DHT22;23174;49.462;11.000;2023-04-25T02:44:23;12.20;99.90
37289;DHT22;23174;49.462;11.000;2023-04-25T02:46:23;12.20;99.90
37289;DHT22;23174;49.462;11.000;2023-04-25T02:48:24;12.10;99.90
37289;DHT22;23174;49.462;11.000;2023-04-25T02:50:25;12.20;99.90
37289;DHT22;23174;49.462;11.000;2023-04-25T02:52:25;12.20;99.90
37289;DHT22;23174;49.462;11.000;2023-04-25T02:54:26;12.10;99.90
37289;DHT22;23174;49.462;11.000;2023-04-25T02:56:26;12.20;99.90
37289;DHT22;23174;49.462;11.000;2023-04-25T02:58:27;12.20;99.90
37289;DHT22;23174;49.462;11.000;2023-04-25T03:00:28;12.20;99.90
37289;DHT22;23174;49.462;11.000;2023-04-25T03:02:28;12.10;99.90
37289;DHT22;23174;49.462;11.000;2023-04-25T03:04:28;12.20;99.90
37289;DHT22;23174;49.462;11.000;2023-04-25T03:06:29;12.10;99.90
37289;DHT22;23174;49.462;11.000;2023-04-25T03:08:29;12.10;99.90
37289;DHT22;23174;49.462;11.000;2023-04-25T03:10:32;12.10;99.90
37289;DHT22;23174;49.462;11.000;2023-04-25T03:12:33;12.10;99.90
37289;DHT22;23174;49.462;11.000;2023-04-25T03:14:33;12.00;99.90
37289;DHT22;23174;49.462;11.000;2023-04-25T03:16:34;12.10;99.90
37289;DHT22;23174;49.462;11.000;2023-04-25T03:18:34;12.10;99.90
37289;DHT22;23174;49.462;11.000;2023-04-25T03:20:35;12.10;99.90
37289;DHT22;23174;49.462;11.000;2023-04-25T03:22:35;12.10;99.90
37289;DHT22;23174;49.462;11.000;2023-04-25T03:24:36;12.10;99.90
37289;DHT22;23174;49.462;11.000;2023-04-25T03:26:37;12.00;99.90
37289;DHT22;23174;49.462;11.000;2023-04-25T03:28:38;12.00;99.90
37289;DHT22;23174;49.462;11.000;2023-04-25T03:30:40;12.00;99.90
37289;DHT22;23174;49.462;11.000;2023-04-25T03:32:40;11.90;99.90
37289;DHT22;23174;49.462;11.000;2023-04-25T03:34:41;11.90;99.90
37289;DHT22;23174;49.462;11.000;2023-04-25T03:36:41;11.80;99.90
37289;DHT22;23174;49.462;11.000;2023-04-25T03:38:42;11.80;99.90
37289;DHT22;23174;49.462;11.000;2023-04-25T03:40:42;11.80;99.90
37289;DHT22;23174;49.462;11.000;2023-04-25T03:42:43;11.80;99.90
37289;DHT22;23174;49.462;11.000;2023-04-25T03:44:43;11.70;99.90
37289;DHT22;23174;49.462;11.000;2023-04-25T03:46:44;11.80;99.90
37289;DHT22;23174;49.462;11.000;2023-04-25T03:48:44;11.80;99.90
37289;DHT22;23174;49.462;11.000;2023-04-25T03:50:45;11.90;99.90
37289;DHT22;23174;49.462;11.000;2023-04-25T03:52:45;11.80;99.90
37289;DHT22;23174;49.462;11.000;2023-04-25T03:54:46;11.70;99.90
37289;DHT22;23174;49.462;11.000;2023-04-25T03:56:46;11.70;99.90
37289;DHT22;23174;49.462;11.000;2023-04-25T03:58:48;11.70;99.90
37289;DHT22;23174;49.462;11.000;2023-04-25T04:00:49;11.70;99.90
37289;DHT22;23174;49.462;11.000;2023-04-25T04:02:49;11.70;99.90
37289;DHT22;23174;49.462;11.000;2023-04-25T04:04:50;11.70;99.90
37289;DHT22;23174;49.462;11.000;2023-04-25T04:06:50;11.60;99.90
37289;DHT22;23174;49.462;11.000;2023-04-25T04:08:52;11.70;99.90
37289;DHT22;23174;49.462;11.000;2023-04-25T04:10:53;11.70;99.90
37289;DHT22;23174;49.462;11.000;2023-04-25T04:12:53;11.80;99.90
37289;DHT22;23174;49.462;11.000;2023-04-25T04:14:54;11.80;99.90
37289;DHT22;23174;49.462;11.000;2023-04-25T04:16:54;11.90;99.90
37289;DHT22;23174;49.462;11.000;2023-04-25T04:18:55;11.90;99.90
37289;DHT22;23174;49.462;11.000;2023-04-25T04:20:55;11.80;99.90
37289;DHT22;23174;49.462;11.000;2023-04-25T04:22:58;11.80;99.90
37289;DHT22;23174;49.462;11.000;2023-04-25T04:24:58;11.90;99.90
37289;DHT22;23174;49.462;11.000;2023-04-25T04:26:59;11.80;99.90
37289;DHT22;23174;49.462;11.000;2023-04-25T04:29:00;11.80;99.90
37289;DHT22;23174;49.462;11.000;2023-04-25T04:31:00;11.90;99.90
37289;DHT22;23174;49.462;11.000;2023-04-25T04:33:01;11.90;99.90
37289;DHT22;23174;49.462;11.000;2023-04-25T04:35:02;11.90;99.90
37289;DHT22;23174;49.462;11.000;2023-04-25T04:37:04;11.80;99.90
37289;DHT22;23174;49.462;11.000;2023-04-25T04:39:06;11.80;99.90
37289;DHT22;23174;49.462;11.000;2023-04-25T04:41:06;11.80;99.90
37289;DHT22;23174;49.462;11.000;2023-04-25T04:43:07;11.90;99.90
37289;DHT22;23174;49.462;11.000;2023-04-25T04:45:09;11.80;99.90
37289;DHT22;23174;49.462;11.000;2023-04-25T04:47:10;11.70;99.90
37289;DHT22;23174;49.462;11.000;2023-04-25T04:49:11;11.90;99.90
37289;DHT22;23174;49.462;11.000;2023-04-25T04:51:12;11.80;99.90
37289;DHT22;23174;49.462;11.000;2023-04-25T04:53:13;11.90;99.90
37289;DHT22;23174;49.462;11.000;2023-04-25T04:55:14;11.90;99.90
37289;DHT22;23174;49.462;11.000;2023-04-25T04:57:14;11.90;99.90
37289;DHT22;23174;49.462;11.000;2023-04-25T04:59:16;11.90;99.90
37289;DHT22;23174;49.462;11.000;2023-04-25T05:01:16;11.80;99.90
37289;DHT22;23174;49.462;11.000;2023-04-25T05:03:17;11.90;99.90
37289;DHT22;23174;49.462;11.000;2023-04-25T05:05:17;11.80;99.90
37289;DHT22;23174;49.462;11.000;2023-04-25T05:07:18;11.80;99.90
37289;DHT22;23174;49.462;11.000;2023-04-25T05:09:19;11.80;99.90
37289;DHT22;23174;49.462;11.000;2023-04-25T05:11:19;11.80;99.90
37289;DHT22;23174;49.462;11.000;2023-04-25T05:13:21;11.80;99.90
37289;DHT22;23174;49.462;11.000;2023-04-25T05:15:21;11.90;99.90
37289;DHT22;23174;49.462;11.000;2023-04-25T05:17:22;11.80;99.90
37289;DHT22;23174;49.462;11.000;2023-04-25T05:19:23;11.90;99.90
37289;DHT22;23174;49.462;11.000;2023-04-25T05:21:23;12.00;99.90
37289;DHT22;23174;49.462;11.000;2023-04-25T05:23:24;11.90;99.90
37289;DHT22;23174;49.462;11.000;2023-04-25T05:25:25;11.90;99.90
37289;DHT22;23174;49.462;11.000;2023-04-25T05:27:25;11.90;99.90
37289;DHT22;23174;49.462;11.000;2023-04-25T05:29:26;11.90;99.90
37289;DHT22;23174;49.462;11.000;2023-04-25T05:31:26;11.90;99.90
37289;DHT22;23174;49.462;11.000;2023-04-25T05:33:27;11.90;99.90
37289;DHT22;23174;49.462;11.000;2023-04-25T05:35:27;11.90;99.90
37289;DHT22;23174;49.462;11.000;2023-04-25T05:37:28;11.90;99.90
37289;DHT22;23174;49.462;11.000;2023-04-25T05:39:31;12.00;99.90
37289;DHT22;23174;49.462;11.000;2023-04-25T05:41:31;12.10;99.90
37289;DHT22;23174;49.462;11.000;2023-04-25T05:43:32;12.10;99.90
37289;DHT22;23174;49.462;11.000;2023-04-25T05:45:33;12.10;99.90
37289;DHT22;23174;49.462;11.000;2023-04-25T05:47:33;12.10;99.90
37289;DHT22;23174;49.462;11.000;2023-04-25T05:49:34;12.10;99.90
37289;DHT22;23174;49.462;11.000;2023-04-25T05:51:35;12.10;99.90
37289;DHT22;23174;49.462;11.000;2023-04-25T05:53:35;12.10;99.90
37289;DHT22;23174;49.462;11.000;2023-04-25T05:55:36;12.00;99.90
37289;DHT22;23174;49.462;11.000;2023-04-25T05:57:36;12.00;99.90
37289;DHT22;23174;49.462;11.000;2023-04-25T05:59:37;12.10;99.90
37289;DHT22;23174;49.462;11.000;2023-04-25T06:01:37;12.10;99.90
37289;DHT22;23174;49.462;11.000;2023-04-25T06:03:38;12.00;99.90
37289;DHT22;23174;49.462;11.000;2023-04-25T06:05:38;12.00;99.90
37289;DHT22;23174;49.462;11.000;2023-04-25T06:07:39;12.10;99.90
37289;DHT22;23174;49.462;11.000;2023-04-25T06:09:39;12.00;99.90
37289;DHT22;23174;49.462;11.000;2023-04-25T06:11:40;12.10;99.90
37289;DHT22;23174;49.462;11.000;2023-04-25T06:13:41;12.10;99.90
37289;DHT22;23174;49.462;11.000;2023-04-25T06:15:41;12.10;99.90
37289;DHT22;23174;49.462;11.000;2023-04-25T06:17:42;12.10;99.90
37289;DHT22;23174;49.462;11.000;2023-04-25T06:19:42;12.20;99.90
37289;DHT22;23174;49.462;11.000;2023-04-25T06:21:43;12.20;99.90
37289;DHT22;23174;49.462;11.000;2023-04-25T06:23:44;12.20;99.90
37289;DHT22;23174;49.462;11.000;2023-04-25T06:25:45;12.20;99.90
37289;DHT22;23174;49.462;11.000;2023-04-25T06:27:45;12.20;99.90
37289;DHT22;23174;49.462;11.000;2023-04-25T06:29:46;12.20;99.90
37289;DHT22;23174;49.462;11.000;2023-04-25T06:31:46;12.10;99.90
37289;DHT22;23174;49.462;11.000;2023-04-25T06:33:47;12.20;99.90
37289;DHT22;23174;49.462;11.000;2023-04-25T06:35:48;12.20;99.90
37289;DHT22;23174;49.462;11.000;2023-04-25T06:37:49;12.20;99.90
37289;DHT22;23174;49.462;11.000;2023-04-25T06:39:49;12.10;99.90
37289;DHT22;23174;49.462;11.000;2023-04-25T06:41:50;12.00;99.90
37289;DHT22;23174;49.462;11.000;2023-04-25T06:43:51;11.80;99.90
37289;DHT22;23174;49.462;11.000;2023-04-25T06:45:51;11.90;99.90
37289;DHT22;23174;49.462;11.000;2023-04-25T06:47:52;11.90;99.90
37289;DHT22;23174;49.462;11.000;2023-04-25T06:49:52;11.80;99.90
37289;DHT22;23174;49.462;11.000;2023-04-25T06:51:53;11.90;99.90
37289;DHT22;23174;49.462;11.000;2023-04-25T06:53:53;11.90;99.90
37289;DHT22;23174;49.462;11.000;2023-04-25T06:55:54;12.00;99.90
37289;DHT22;23174;49.462;11.000;2023-04-25T06:57:54;12.10;99.90
37289;DHT22;23174;49.462;11.000;2023-04-25T06:59:55;12.10;99.90
37289;DHT22;23174;49.462;11.000;2023-04-25T07:01:55;12.20;99.90
37289;DHT22;23174;49.462;11.000;2023-04-25T07:03:56;12.10;99.90
37289;DHT22;23174;49.462;11.000;2023-04-25T07:05:56;12.00;99.90
37289;DHT22;23174;49.462;11.000;2023-04-25T07:07:57;12.20;99.90
37289;DHT22;23174;49.462;11.000;2023-04-25T07:09:57;12.10;99.90
37289;DHT22;23174;49.462;11.000;2023-04-25T07:11:58;12.10;99.90
37289;DHT22;23174;49.462;11.000;2023-04-25T07:13:58;12.10;99.90
37289;DHT22;23174;49.462;11.000;2023-04-25T07:15:59;12.20;99.90
37289;DHT22;23174;49.462;11.000;2023-04-25T07:18:00;12.20;99.90
37289;DHT22;23174;49.462;11.000;2023-04-25T07:20:01;12.20;99.90
37289;DHT22;23174;49.462;11.000;2023-04-25T07:22:01;12.20;99.90
37289;DHT22;23174;49.462;11.000;2023-04-25T07:24:02;12.10;99.90
37289;DHT22;23174;49.462;11.000;2023-04-25T07:26:03;12.00;99.90
37289;DHT22;23174;49.462;11.000;2023-04-25T07:28:03;12.00;99.90
37289;DHT22;23174;49.462;11.000;2023-04-25T07:30:05;11.90;99.90
37289;DHT22;23174;49.462;11.000;2023-04-25T07:32:06;11.80;99.90
37289;DHT22;23174;49.462;11.000;2023-04-25T07:34:06;11.90;99.90
37289;DHT22;23174;49.462;11.000;2023-04-25T07:36:07;11.80;99.90
37289;DHT22;23174;49.462;11.000;2023-04-25T07:38:08;11.80;99.90
37289;DHT22;23174;49.462;11.000;2023-04-25T07:40:10;11.90;99.90
37289;DHT22;23174;49.462;11.000;2023-04-25T07:42:11;11.80;99.90
37289;DHT22;23174;49.462;11.000;2023-04-25T07:44:12;11.90;99.90
37289;DHT22;23174;49.462;11.000;2023-04-25T07:46:12;11.80;99.90
37289;DHT22;23174;49.462;11.000;2023-04-25T07:48:17;11.90;99.90
37289;DHT22;23174;49.462;11.000;2023-04-25T07:50:21;11.80;99.90
37289;DHT22;23174;49.462;11.000;2023-04-25T07:52:21;11.80;99.90
37289;DHT22;23174;49.462;11.000;2023-04-25T07:54:22;11.90;99.90
37289;DHT22;23174;49.462;11.000;2023-04-25T07:56:22;11.90;99.90
37289;DHT22;23174;49.462;11.000;2023-04-25T07:58:23;11.90;99.90
37289;DHT22;23174;49.462;11.000;2023-04-25T08:00:23;11.80;99.90
37289;DHT22;23174;49.462;11.000;2023-04-25T08:02:24;11.70;99.90
37289;DHT22;23174;49.462;11.000;2023-04-25T08:04:26;11.60;99.90
37289;DHT22;23174;49.462;11.000;2023-04-25T08:06:27;11.30;99.90
37289;DHT22;23174;49.462;11.000;2023-04-25T08:08:27;11.40;99.90
37289;DHT22;23174;49.462;11.000;2023-04-25T08:10:28;11.40;99.90
37289;DHT22;23174;49.462;11.000;2023-04-25T08:12:28;11.60;99.90
37289;DHT22;23174;49.462;11.000;2023-04-25T08:14:29;11.70;99.90
37289;DHT22;23174;49.462;11.000;2023-04-25T08:16:35;11.60;99.90
37289;DHT22;23174;49.462;11.000;2023-04-25T08:18:36;11.50;99.90
37289;DHT22;23174;49.462;11.000;2023-04-25T08:20:36;11.50;99.90
37289;DHT22;23174;49.462;11.000;2023-04-25T08:22:37;11.50;99.90
37289;DHT22;23174;49.462;11.000;2023-04-25T08:24:37;11.40;99.90
37289;DHT22;23174;49.462;11.000;2023-04-25T08:26:38;11.50;99.90
37289;DHT22;23174;49.462;11.000;2023-04-25T08:28:39;11.50;99.90
37289;DHT22;23174;49.462;11.000;2023-04-25T08:30:39;11.50;99.90
37289;DHT22;23174;49.462;11.000;2023-04-25T08:32:40;11.60;99.90
37289;DHT22;23174;49.462;11.000;2023-04-25T08:34:41;11.70;99.90
37289;DHT22;23174;49.462;11.000;2023-04-25T08:36:42;11.70;99.90
37289;DHT22;23174;49.462;11.000;2023-04-25T08:38:43;11.80;99.90
37289;DHT22;23174;49.462;11.000;2023-04-25T08:40:43;11.80;99.90
37289;DHT22;23174;49.462;11.000;2023-04-25T08:42:44;11.80;99.90
37289;DHT22;23174;49.462;11.000;2023-04-25T08:44:48;12.00;99.90
37289;DHT22;23174;49.462;11.000;2023-04-25T08:46:48;12.10;99.90
37289;DHT22;23174;49.462;11.000;2023-04-25T08:48:53;12.20;99.90
37289;DHT22;23174;49.462;11.000;2023-04-25T08:50:56;12.10;99.90
37289;DHT22;23174;49.462;11.000;2023-04-25T08:52:59;12.10;99.90
37289;DHT22;23174;49.462;11.000;2023-04-25T08:55:05;12.20;99.90
37289;DHT22;23174;49.462;11.000;2023-04-25T08:57:07;12.20;99.90
37289;DHT22;23174;49.462;11.000;2023-04-25T08:59:07;12.30;99.90
37289;DHT22;23174;49.462;11.000;2023-04-25T09:01:08;12.40;99.90
37289;DHT22;23174;49.462;11.000;2023-04-25T09:03:10;12.40;99.90
37289;DHT22;23174;49.462;11.000;2023-04-25T09:05:12;12.40;99.90
37289;DHT22;23174;49.462;11.000;2023-04-25T09:07:13;12.30;99.90
37289;DHT22;23174;49.462;11.000;2023-04-25T09:09:18;12.20;99.90
37289;DHT22;23174;49.462;11.000;2023-04-25T09:11:19;12.20;99.90
37289;DHT22;23174;49.462;11.000;2023-04-25T09:13:29;12.00;99.90
37289;DHT22;23174;49.462;11.000;2023-04-25T09:15:29;11.90;99.90
37289;DHT22;23174;49.462;11.000;2023-04-25T09:17:30;11.90;99.90
37289;DHT22;23174;49.462;11.000;2023-04-25T09:19:33;11.90;99.90
37289;DHT22;23174;49.462;11.000;2023-04-25T09:21:35;11.90;99.90
37289;DHT22;23174;49.462;11.000;2023-04-25T09:23:41;11.90;99.90
37289;DHT22;23174;49.462;11.000;2023-04-25T09:25:42;12.00;99.90
37289;DHT22;23174;49.462;11.000;2023-04-25T09:27:53;12.10;99.90
37289;DHT22;23174;49.462;11.000;2023-04-25T09:29:58;12.10;99.90
37289;DHT22;23174;49.462;11.000;2023-04-25T09:32:16;12.20;99.90
37289;DHT22;23174;49.462;11.000;2023-04-25T09:34:17;12.30;99.90
37289;DHT22;23174;49.462;11.000;2023-04-25T09:36:17;12.40;99.90
37289;DHT22;23174;49.462;11.000;2023-04-25T09:38:18;12.40;99.90
37289;DHT22;23174;49.462;11.000;2023-04-25T09:40:18;12.50;99.90
37289;DHT22;23174;49.462;11.000;2023-04-25T09:42:24;12.50;99.90
37289;DHT22;23174;49.462;11.000;2023-04-25T09:44:25;12.60;99.90
37289;DHT22;23174;49.462;11.000;2023-04-25T09:46:35;12.60;99.90
37289;DHT22;23174;49.462;11.000;2023-04-25T09:48:39;12.50;99.90
37289;DHT22;23174;49.462;11.000;2023-04-25T09:50:39;12.60;99.90
37289;DHT22;23174;49.462;11.000;2023-04-25T09:52:40;12.80;99.90
37289;DHT22;23174;49.462;11.000;2023-04-25T09:54:41;12.90;99.90
37289;DHT22;23174;49.462;11.000;2023-04-25T09:56:42;13.10;99.90
37289;DHT22;23174;49.462;11.000;2023-04-25T09:58:44;13.20;99.90
37289;DHT22;23174;49.462;11.000;2023-04-25T10:00:47;13.30;99.90
37289;DHT22;23174;49.462;11.000;2023-04-25T10:02:48;13.30;99.90
37289;DHT22;23174;49.462;11.000;2023-04-25T10:04:51;13.40;99.90
37289;DHT22;23174;49.462;11.000;2023-04-25T10:06:53;13.40;99.90
37289;DHT22;23174;49.462;11.000;2023-04-25T10:08:56;13.40;99.90
37289;DHT22;23174;49.462;11.000;2023-04-25T10:10:59;13.40;99.90
37289;DHT22;23174;49.462;11.000;2023-04-25T10:13:00;13.20;99.90
37289;DHT22;23174;49.462;11.000;2023-04-25T10:15:01;13.20;99.90
37289;DHT22;23174;49.462;11.000;2023-04-25T10:17:03;13.20;99.90
37289;DHT22;23174;49.462;11.000;2023-04-25T10:19:03;13.30;99.90
37289;DHT22;23174;49.462;11.000;2023-04-25T10:21:06;13.40;99.90
37289;DHT22;23174;49.462;11.000;2023-04-25T10:23:12;13.60;99.90
37289;DHT22;23174;49.462;11.000;2023-04-25T10:25:14;13.70;99.90
37289;DHT22;23174;49.462;11.000;2023-04-25T10:27:14;13.60;99.90
37289;DHT22;23174;49.462;11.000;2023-04-25T10:29:25;13.70;99.90
37289;DHT22;23174;49.462;11.000;2023-04-25T10:31:27;13.70;99.90
37289;DHT22;23174;49.462;11.000;2023-04-25T10:33:39;13.80;99.90
37289;DHT22;23174;49.462;11.000;2023-04-25T10:35:41;13.80;99.90
37289;DHT22;23174;49.462;11.000;2023-04-25T10:40:08;13.60;99.90
37289;DHT22;23174;49.462;11.000;2023-04-25T10:42:09;13.60;99.90
37289;DHT22;23174;49.462;11.000;2023-04-25T10:44:10;13.70;99.90
37289;DHT22;23174;49.462;11.000;2023-04-25T10:48:29;13.90;99.90
37289;DHT22;23174;49.462;11.000;2023-04-25T10:50:37;13.90;99.90
37289;DHT22;23174;49.462;11.000;2023-04-25T10:52:39;14.00;99.90
37289;DHT22;23174;49.462;11.000;2023-04-25T10:55:03;14.00;99.90
37289;DHT22;23174;49.462;11.000;2023-04-25T10:57:02;14.00;99.90
37289;DHT22;23174;49.462;11.000;2023-04-25T10:59:10;14.00;99.90
37289;DHT22;23174;49.462;11.000;2023-04-25T11:01:20;14.00;99.90
37289;DHT22;23174;49.462;11.000;2023-04-25T11:03:21;14.00;99.90
37289;DHT22;23174;49.462;11.000;2023-04-25T11:05:30;14.10;99.90
37289;DHT22;23174;49.462;11.000;2023-04-25T11:09:49;14.20;99.90
37289;DHT22;23174;49.462;11.000;2023-04-25T11:11:57;14.30;99.90
37289;DHT22;23174;49.462;11.000;2023-04-25T11:14:01;14.30;99.90
37289;DHT22;23174;49.462;11.000;2023-04-25T11:16:01;14.40;99.90
37289;DHT22;23174;49.462;11.000;2023-04-25T11:18:02;14.30;99.90
37289;DHT22;23174;49.462;11.000;2023-04-25T11:20:03;14.30;99.90
37289;DHT22;23174;49.462;11.000;2023-04-25T11:22:10;14.30;99.90
37289;DHT22;23174;49.462;11.000;2023-04-25T11:24:11;14.30;99.90
37289;DHT22;23174;49.462;11.000;2023-04-25T11:26:13;14.30;99.90
37289;DHT22;23174;49.462;11.000;2023-04-25T11:28:21;14.30;99.90
37289;DHT22;23174;49.462;11.000;2023-04-25T11:30:23;14.30;99.90
37289;DHT22;23174;49.462;11.000;2023-04-25T11:32:24;14.20;99.90
37289;DHT22;23174;49.462;11.000;2023-04-25T11:34:25;14.20;99.60
37289;DHT22;23174;49.462;11.000;2023-04-25T11:36:26;14.20;99.90
37289;DHT22;23174;49.462;11.000;2023-04-25T11:38:28;14.20;99.90
37289;DHT22;23174;49.462;11.000;2023-04-25T11:40:30;14.30;99.90
37289;DHT22;23174;49.462;11.000;2023-04-25T11:42:31;14.20;99.90
37289;DHT22;23174;49.462;11.000;2023-04-25T11:44:31;14.30;99.90
37289;DHT22;23174;49.462;11.000;2023-04-25T11:46:35;14.40;99.90
37289;DHT22;23174;49.462;11.000;2023-04-25T11:48:39;14.40;99.90
37289;DHT22;23174;49.462;11.000;2023-04-25T11:50:40;14.50;99.50
37289;DHT22;23174;49.462;11.000;2023-04-25T11:52:46;14.50;99.30
37289;DHT22;23174;49.462;11.000;2023-04-25T11:54:46;14.50;99.60
37289;DHT22;23174;49.462;11.000;2023-04-25T11:56:47;14.50;99.90
37289;DHT22;23174;49.462;11.000;2023-04-25T11:58:58;14.60;99.10
37289;DHT22;23174;49.462;11.000;2023-04-25T12:00:59;14.60;99.50
37289;DHT22;23174;49.462;11.000;2023-04-25T12:03:00;14.70;98.30
37289;DHT22;23174;49.462;11.000;2023-04-25T12:05:06;14.70;97.80
37289;DHT22;23174;49.462;11.000;2023-04-25T12:07:09;14.80;99.20
37289;DHT22;23174;49.462;11.000;2023-04-25T12:09:11;14.80;98.00
37289;DHT22;23174;49.462;11.000;2023-04-25T12:11:22;14.80;97.60
37289;DHT22;23174;49.462;11.000;2023-04-25T12:13:25;14.70;98.50
37289;DHT22;23174;49.462;11.000;2023-04-25T12:15:25;14.70;98.30
37289;DHT22;23174;49.462;11.000;2023-04-25T12:17:26;14.70;98.80
37289;DHT22;23174;49.462;11.000;2023-04-25T12:19:36;14.70;99.10
37289;DHT22;23174;49.462;11.000;2023-04-25T12:21:37;14.70;99.80
37289;DHT22;23174;49.462;11.000;2023-04-25T12:23:38;14.80;98.90
37289;DHT22;23174;49.462;11.000;2023-04-25T12:25:41;14.70;98.70
37289;DHT22;23174;49.462;11.000;2023-04-25T12:27:42;14.80;98.90
37289;DHT22;23174;49.462;11.000;2023-04-25T12:29:51;14.80;99.10
37289;DHT22;23174;49.462;11.000;2023-04-25T12:31:53;14.80;98.90
37289;DHT22;23174;49.462;11.000;2023-04-25T12:33:54;14.80;98.90
37289;DHT22;23174;49.462;11.000;2023-04-25T12:35:57;14.70;97.50
37289;DHT22;23174;49.462;11.000;2023-04-25T12:37:58;14.60;97.40
37289;DHT22;23174;49.462;11.000;2023-04-25T12:39:58;14.60;98.60
37289;DHT22;23174;49.462;11.000;2023-04-25T12:41:59;14.50;98.80